Time;durP1;ratioP1;P1;durP2;ratioP2;P2;SDS_P1;SDS_P2;PMS_P1;PMS_P2;Temp;Humidity;BMP_temperature;BMP_pressure;BME280_temperature;BME280_humidity;BME280_pressure;Samples;Min_cycle;Max_cycle;Signal;HPM_P1;HPM_P2
2023/11/14 00:00:46;;;;;;;23.38;17.85;;;;;;;7.26;100.00;102297.59;5045709;28;20128;-69
2023/11/14 00:03:12;;;;;;;26.90;18.27;;;;;;;6.90;100.00;102302.63;5028152;28;20037;-69
2023/11/14 00:05:37;;;;;;;21.95;16.73;;;;;;;7.49;100.00;102347.03;5027947;28;20052;-70
2023/11/14 00:08:04;;;;;;;25.52;15.98;;;;;;;7.10;100.00;102320.81;5046540;28;20029;-69
2023/11/14 00:10:29;;;;;;;23.77;15.65;;;;;;;6.91;100.00;102370.06;5044766;28;20040;-70
2023/11/14 00:12:58;;;;;;;25.33;15.38;;;;;;;6.25;100.00;102251.25;5047591;28;20052;-69
2023/11/14 00:15:26;;;;;;;28.30;16.75;;;;;;;6.69;100.00;102312.22;5049792;28;20514;-70
2023/11/14 00:17:51;;;;;;;24.70;15.00;;;;;;;7.11;100.00;102362.16;5031745;28;20079;-69
2023/11/14 00:20:17;;;;;;;20.65;13.27;;;;;;;6.91;100.00;102298.44;5049060;28;20037;-70
2023/11/14 00:22:42;;;;;;;19.35;13.60;;;;;;;7.34;100.00;102350.91;5049686;28;20055;-70
2023/11/14 00:25:08;;;;;;;19.60;12.48;;;;;;;7.03;100.00;102361.09;5050406;28;20094;-70
2023/11/14 00:27:34;;;;;;;17.73;12.50;;;;;;;7.06;100.00;102371.28;5048848;28;20071;-70
2023/11/14 00:30:00;;;;;;;19.77;12.43;;;;;;;6.82;100.00;102369.84;5048938;28;20047;-69
2023/11/14 00:32:25;;;;;;;17.80;11.68;;;;;;;6.84;100.00;102380.84;5048906;28;20808;-69
2023/11/14 00:34:50;;;;;;;18.70;13.23;;;;;;;6.74;100.00;102361.22;5048186;28;20813;-69
2023/11/14 00:37:17;;;;;;;18.73;12.68;;;;;;;6.91;100.00;102377.66;5049202;28;20075;-69
2023/11/14 00:39:42;;;;;;;16.58;10.65;;;;;;;6.28;100.00;102310.25;5049899;28;20021;-69
2023/11/14 00:42:08;;;;;;;13.65;9.80;;;;;;;6.28;100.00;102322.88;5031385;28;20047;-70
2023/11/14 00:44:43;;;;;;;13.27;9.52;;;;;;;6.38;100.00;102309.69;5031772;28;20028;-70
2023/11/14 00:47:10;;;;;;;14.90;10.07;;;;;;;6.29;100.00;102317.03;5049294;28;20067;-69
2023/11/14 00:49:35;;;;;;;15.85;9.73;;;;;;;6.19;100.00;102251.06;5031402;28;20040;-69
2023/11/14 00:52:01;;;;;;;17.98;10.27;;;;;;;7.07;100.00;102360.34;5048512;28;20029;-69
2023/11/14 00:54:27;;;;;;;15.10;10.43;;;;;;;6.82;100.00;102358.88;5031403;28;20099;-70
2023/11/14 00:56:53;;;;;;;19.67;11.52;;;;;;;6.94;100.00;102370.16;5031238;28;20495;-69
2023/11/14 00:59:20;;;;;;;19.42;11.50;;;;;;;7.09;100.00;102381.50;5049281;28;20056;-70
2023/11/14 01:01:45;;;;;;;16.95;10.82;;;;;;;7.18;100.00;102369.06;5030272;28;20047;-69
2023/11/14 01:04:12;;;;;;;21.70;11.18;;;;;;;7.18;100.00;102391.81;5048914;28;20522;-69
2023/11/14 01:06:38;;;;;;;16.70;11.25;;;;;;;6.60;100.00;102341.44;5031104;28;20144;-69
2023/11/14 01:09:03;;;;;;;18.30;10.52;;;;;;;7.13;100.00;102383.28;5048878;28;20468;-70
2023/11/14 01:11:29;;;;;;;14.48;10.70;;;;;;;6.53;100.00;102348.03;5049095;28;20909;-69
2023/11/14 01:13:54;;;;;;;16.15;9.70;;;;;;;6.49;100.00;102267.03;5048487;28;20036;-70
2023/11/14 01:16:20;;;;;;;17.50;11.27;;;;;;;6.26;100.00;102334.63;5048298;28;20086;-70
2023/11/14 01:18:45;;;;;;;17.67;12.15;;;;;;;6.38;100.00;102327.38;5049154;28;20039;-70
2023/11/14 01:21:17;;;;;;;18.00;11.13;;;;;;;6.85;100.00;102395.19;5048480;28;20035;-69
2023/11/14 01:23:44;;;;;;;15.07;10.88;;;;;;;6.92;100.00;102353.22;5047609;28;20025;-69
2023/11/14 01:26:09;;;;;;;16.98;10.52;;;;;;;6.92;100.00;102383.56;5048719;28;20037;-69
2023/11/14 01:28:35;;;;;;;13.82;9.52;;;;;;;6.87;100.00;102375.88;5030610;28;20557;-70
2023/11/14 01:31:00;;;;;;;18.67;10.00;;;;;;;6.73;100.00;102369.63;5047808;28;20080;-70
2023/11/14 01:33:25;;;;;;;16.80;9.70;;;;;;;7.20;100.00;102365.75;5030401;28;20454;-69
2023/11/14 01:35:51;;;;;;;16.00;10.90;;;;;;;6.34;100.00;102325.59;5048246;28;20458;-70
2023/11/14 01:38:16;;;;;;;14.50;10.75;;;;;;;6.43;100.00;102323.31;5030411;28;20037;-69
2023/11/14 01:40:50;;;;;;;15.50;10.80;;;;;;;6.37;100.00;102308.00;5030618;28;20499;-69
2023/11/14 01:43:16;;;;;;;15.38;11.27;;;;;;;6.59;100.00;102397.88;5047566;28;20527;-68
2023/11/14 01:45:41;;;;;;;17.95;11.52;;;;;;;6.71;100.00;102376.31;5048072;28;20047;-69
2023/11/14 01:48:07;;;;;;;16.50;11.25;;;;;;;6.37;100.00;102315.56;5048508;28;20036;-69
2023/11/14 01:50:33;;;;;;;16.70;11.48;;;;;;;5.98;100.00;102299.34;5047971;28;20040;-69
2023/11/14 01:52:59;;;;;;;16.83;10.77;;;;;;;6.61;100.00;102374.34;5029513;28;20107;-69
2023/11/14 01:55:25;;;;;;;15.35;11.25;;;;;;;6.46;100.00;102360.41;5047278;28;20445;-69
2023/11/14 01:57:53;;;;;;;16.77;10.85;;;;;;;6.28;100.00;102343.09;5047851;28;20795;-70
2023/11/14 02:00:19;;;;;;;14.82;10.63;;;;;;;5.54;100.00;102239.13;5047856;28;20458;-69
2023/11/14 02:02:47;;;;;;;18.13;11.15;;;;;;;5.81;100.00;102287.84;5048272;28;20039;-69
2023/11/14 02:05:15;;;;;;;16.20;10.82;;;;;;;6.13;100.00;102343.53;5026427;28;20037;-69
2023/11/14 02:07:41;;;;;;;16.25;11.20;;;;;;;5.87;100.00;102299.03;5025739;28;20511;-69
2023/11/14 02:10:06;;;;;;;15.68;11.23;;;;;;;5.86;100.00;102367.13;5027785;28;20044;-70
2023/11/14 02:12:32;;;;;;;15.52;11.50;;;;;;;6.32;100.00;102357.53;5027415;28;20037;-70
2023/11/14 02:14:58;;;;;;;15.35;11.40;;;;;;;5.48;100.00;102295.31;5027774;28;20033;-70
2023/11/14 02:17:25;;;;;;;15.43;10.80;;;;;;;6.15;100.00;102338.53;5028033;28;20025;-70
2023/11/14 02:19:50;;;;;;;17.02;10.30;;;;;;;5.73;100.00;102335.59;5027879;28;20052;-70
2023/11/14 02:22:16;;;;;;;14.95;10.55;;;;;;;5.98;100.00;102388.53;5028040;28;20488;-69
2023/11/14 02:24:51;;;;;;;13.52;10.60;;;;;;;5.67;100.00;102329.50;5028330;28;20029;-70
2023/11/14 02:27:18;;;;;;;16.25;10.75;;;;;;;6.24;100.00;102356.44;5027320;28;20057;-69
2023/11/14 02:29:45;;;;;;;15.10;10.40;;;;;;;6.10;100.00;102360.28;5028081;28;20026;-70
2023/11/14 02:32:10;;;;;;;13.60;11.30;;;;;;;5.97;100.00;102385.97;5027172;28;20033;-68
2023/11/14 02:34:36;;;;;;;14.93;11.00;;;;;;;5.87;100.00;102315.84;5026988;28;20415;-70
2023/11/14 02:37:01;;;;;;;14.82;10.35;;;;;;;5.75;100.00;102371.81;5026756;28;20163;-70
2023/11/14 02:39:28;;;;;;;12.18;9.77;;;;;;;5.67;100.00;102395.09;5027473;28;20507;-69
2023/11/14 02:41:54;;;;;;;11.77;9.98;;;;;;;5.00;100.00;102322.38;5025795;28;20123;-70
2023/11/14 02:44:19;;;;;;;14.55;9.73;;;;;;;5.17;100.00;102335.50;5027611;28;20530;-69
2023/11/14 02:46:45;;;;;;;11.95;9.15;;;;;;;5.48;100.00;102368.47;5027043;28;20025;-69
2023/11/14 02:49:16;;;;;;;10.60;9.50;;;;;;;5.74;100.00;102387.78;5027590;28;20033;-70
2023/11/14 02:51:42;;;;;;;12.13;9.18;;;;;;;5.32;100.00;102308.25;5026302;28;20163;-69
2023/11/14 02:54:07;;;;;;;11.73;9.95;;;;;;;5.70;100.00;102359.88;5025928;28;20132;-70
2023/11/14 02:56:33;;;;;;;13.25;10.80;;;;;;;4.95;100.00;102305.41;5025140;28;20041;-69
2023/11/14 02:59:00;;;;;;;16.25;10.05;;;;;;;5.16;100.00;102324.59;5027074;28;20029;-70
2023/11/14 03:01:26;;;;;;;14.75;10.27;;;;;;;5.09;100.00;102306.69;5027391;28;20111;-70
2023/11/14 03:03:52;;;;;;;12.48;9.15;;;;;;;5.36;100.00;102322.69;5027350;28;20070;-70
2023/11/14 03:06:17;;;;;;;14.10;10.25;;;;;;;5.75;100.00;102338.16;5040650;28;20111;-70
2023/11/14 03:08:42;;;;;;;15.45;10.32;;;;;;;5.69;100.00;102333.78;5046913;28;20028;-70
2023/11/14 03:11:08;;;;;;;18.33;11.65;;;;;;;5.61;100.00;102335.22;5046587;28;20434;-69
2023/11/14 03:13:34;;;;;;;16.35;10.60;;;;;;;5.52;100.00;102273.56;5046731;28;20057;-70
2023/11/14 03:15:59;;;;;;;19.55;11.98;;;;;;;5.59;100.00;102336.84;5046973;28;20029;-70
2023/11/14 03:18:25;;;;;;;18.35;12.10;;;;;;;5.19;100.00;102256.59;5027869;28;20086;-71
2023/11/14 03:20:50;;;;;;;19.50;11.65;;;;;;;5.81;100.00;102311.44;5046604;28;20405;-71
2023/11/14 03:23:16;;;;;;;16.33;10.77;;;;;;;5.98;100.00;102327.13;5028570;28;20025;-70
2023/11/14 03:25:41;;;;;;;19.13;11.40;;;;;;;5.63;100.00;102254.53;5046232;28;20037;-69
2023/11/14 03:28:07;;;;;;;19.27;11.30;;;;;;;5.53;100.00;102255.06;5046156;28;20029;-70
2023/11/14 03:30:32;;;;;;;17.88;11.25;;;;;;;5.91;100.00;102302.50;5047075;28;20100;-70
2023/11/14 03:32:58;;;;;;;17.15;12.00;;;;;;;6.11;100.00;102319.91;5045191;28;20036;-70
2023/11/14 03:35:23;;;;;;;15.88;11.90;;;;;;;5.97;100.00;102305.19;5046185;28;20036;-71
2023/11/14 03:37:49;;;;;;;17.02;12.30;;;;;;;5.71;100.00;102298.50;5047027;28;20158;-71
2023/11/14 03:40:14;;;;;;;16.98;12.25;;;;;;;5.93;100.00;102313.50;5046023;28;20057;-70
2023/11/14 03:42:40;;;;;;;14.77;11.13;;;;;;;5.45;100.00;102259.91;5046327;28;20041;-70
2023/11/14 03:45:06;;;;;;;19.92;13.07;;;;;;;5.72;100.00;102264.91;5046027;28;20059;-70
2023/11/14 03:47:31;;;;;;;21.98;13.27;;;;;;;5.44;100.00;102264.91;5049568;28;20040;-70
2023/11/14 03:49:57;;;;;;;24.73;14.65;;;;;;;5.96;100.00;102316.94;5050138;28;20029;-69
2023/11/14 03:52:23;;;;;;;26.17;14.85;;;;;;;5.55;100.00;102245.88;5032613;28;20513;-70
2023/11/14 03:54:48;;;;;;;24.83;15.13;;;;;;;5.16;100.00;102245.56;5050507;28;20035;-70
2023/11/14 03:57:14;;;;;;;22.67;13.75;;;;;;;5.79;100.00;102307.16;5050950;28;20037;-70
2023/11/14 03:59:39;;;;;;;21.70;13.43;;;;;;;5.98;100.00;102271.56;5050173;28;20029;-70
2023/11/14 04:02:05;;;;;;;22.05;14.13;;;;;;;5.96;100.00;102298.44;5032395;28;20120;-69
2023/11/14 04:04:30;;;;;;;22.00;13.40;;;;;;;5.89;100.00;102225.88;5050334;28;20039;-69
2023/11/14 04:06:56;;;;;;;17.55;12.27;;;;;;;5.87;100.00;102214.88;5050234;28;20048;-70
2023/11/14 04:09:21;;;;;;;21.13;13.65;;;;;;;5.76;100.00;102203.63;5049733;28;20041;-70
2023/11/14 04:11:50;;;;;;;19.17;14.20;;;;;;;5.36;100.00;102156.25;5031617;28;20033;-70
2023/11/14 04:14:16;;;;;;;24.05;17.45;;;;;;;5.71;100.00;102192.50;5048460;28;20059;-72
2023/11/14 04:16:42;;;;;;;27.45;18.92;;;;;;;6.04;100.00;102262.47;5050573;28;20035;-71
2023/11/14 04:19:07;;;;;;;49.05;32.90;;;;;;;5.73;100.00;102201.84;5048405;28;20029;-69
2023/11/14 04:21:33;;;;;;;24.27;18.15;;;;;;;5.95;100.00;102262.22;5050281;28;20045;-72
2023/11/14 04:23:59;;;;;;;20.90;16.27;;;;;;;6.03;100.00;102264.97;5031880;28;20086;-69
2023/11/14 04:26:25;;;;;;;23.33;15.88;;;;;;;5.78;100.00;102224.69;5048811;28;20137;-72
2023/11/14 04:28:51;;;;;;;22.70;15.90;;;;;;;5.89;100.00;102256.16;5051545;28;20024;-73
2023/11/14 04:31:16;;;;;;;22.73;13.88;;;;;;;5.45;100.00;102198.53;5048208;28;20032;-74
2023/11/14 04:33:42;;;;;;;22.17;15.23;;;;;;;5.75;100.00;102248.16;5049572;28;20043;-73
2023/11/14 04:36:09;;;;;;;25.27;15.45;;;;;;;5.33;100.00;102205.72;5032124;28;20495;-73
2023/11/14 04:38:35;;;;;;;22.20;13.90;;;;;;;5.67;100.00;102266.41;5050146;28;20109;-73
2023/11/14 04:41:00;;;;;;;20.40;13.68;;;;;;;5.25;100.00;102198.78;5048795;28;20563;-73
2023/11/14 04:43:26;;;;;;;19.60;12.27;;;;;;;5.76;100.00;102275.13;5032562;28;20036;-74
2023/11/14 04:45:51;;;;;;;18.27;12.70;;;;;;;5.40;100.00;102200.91;5049221;28;20041;-72
2023/11/14 04:48:17;;;;;;;18.50;12.98;;;;;;;5.29;100.00;102194.69;5050039;28;20385;-76
2023/11/14 04:50:43;;;;;;;16.27;12.00;;;;;;;5.22;100.00;102154.97;5050475;28;20503;-77
2023/11/14 04:53:08;;;;;;;16.80;11.55;;;;;;;5.91;100.00;102204.03;5032375;28;20039;-73
2023/11/14 04:55:34;;;;;;;20.35;12.30;;;;;;;5.38;100.00;102207.56;5031997;28;20029;-76
2023/11/14 04:57:59;;;;;;;20.85;13.80;;;;;;;5.75;100.00;102244.78;5049067;28;20021;-74
2023/11/14 05:00:25;;;;;;;22.63;13.77;;;;;;;5.45;100.00;102234.66;5049094;28;20041;-75
2023/11/14 05:02:50;;;;;;;21.65;14.82;;;;;;;5.49;100.00;102236.47;5032952;28;20063;-74
2023/11/14 05:05:18;;;;;;;24.55;20.27;;;;;;;5.32;100.00;102178.78;5048124;28;20041;-75
2023/11/14 05:07:43;;;;;;;26.67;21.60;;;;;;;5.17;100.00;102159.88;5032290;28;20452;-75
2023/11/14 05:10:09;;;;;;;25.50;19.50;;;;;;;5.51;100.00;102150.75;5031536;28;20124;-73
2023/11/14 05:12:35;;;;;;;26.15;18.98;;;;;;;5.78;100.00;102202.84;5047841;28;20411;-73
2023/11/14 05:15:00;;;;;;;23.38;16.60;;;;;;;5.81;100.00;102192.81;5050050;28;20028;-73
2023/11/14 05:17:26;;;;;;;23.85;17.50;;;;;;;5.53;100.00;102154.16;5049403;28;20090;-73
2023/11/14 05:19:51;;;;;;;27.95;20.65;;;;;;;5.48;100.00;102140.59;5049188;28;20025;-75
2023/11/14 05:22:17;;;;;;;26.42;19.65;;;;;;;5.53;100.00;102139.03;5049681;28;20068;-72
2023/11/14 05:24:43;;;;;;;28.35;19.70;;;;;;;5.77;100.00;102217.91;5049993;28;20129;-75
2023/11/14 05:27:09;;;;;;;28.08;19.30;;;;;;;5.72;100.00;102202.69;5049288;28;20119;-74
2023/11/14 05:29:35;;;;;;;23.25;16.63;;;;;;;5.49;100.00;102133.06;5048724;28;20048;-73
2023/11/14 05:32:02;;;;;;;25.45;18.15;;;;;;;6.02;100.00;102197.63;5049358;28;20041;-75
2023/11/14 05:34:27;;;;;;;23.80;18.92;;;;;;;6.17;100.00;102184.53;5029906;28;20086;-73
2023/11/14 05:36:53;;;;;;;27.83;19.38;;;;;;;5.80;100.00;102208.75;5031696;28;20058;-73
2023/11/14 05:39:20;;;;;;;30.65;19.92;;;;;;;6.31;100.00;102209.31;5029589;28;20033;-73
2023/11/14 05:41:45;;;;;;;34.58;24.20;;;;;;;5.99;100.00;102215.22;5048687;28;20036;-74
2023/11/14 05:44:11;;;;;;;29.02;17.00;;;;;;;10.15;100.00;102156.94;5030576;28;20029;-76
2023/11/14 05:46:36;;;;;;;31.30;20.88;;;;;;;10.44;100.00;102230.91;5048326;28;20458;-77
2023/11/14 05:49:01;;;;;;;32.67;21.83;;;;;;;7.48;100.00;102228.06;5048955;28;20029;-73
2023/11/14 05:51:27;;;;;;;30.70;21.20;;;;;;;6.72;100.00;102225.50;5048325;28;20028;-77
2023/11/14 05:53:53;;;;;;;29.10;19.70;;;;;;;7.05;100.00;102274.34;5048804;28;20373;-74
2023/11/14 05:56:19;;;;;;;32.90;18.45;;;;;;;6.61;100.00;102219.34;5048341;28;20029;-76
2023/11/14 05:58:44;;;;;;;38.25;19.02;;;;;;;6.57;100.00;102210.84;5030899;28;20024;-77
2023/11/14 06:01:10;;;;;;;49.17;21.48;;;;;;;6.49;100.00;102212.31;5030926;28;20040;-77
2023/11/14 06:03:36;;;;;;;46.63;19.65;;;;;;;6.78;100.00;102289.69;5048570;28;20558;-74
2023/11/14 06:06:03;;;;;;;50.05;20.45;;;;;;;7.09;100.00;102291.28;5048588;28;20045;-73
2023/11/14 06:08:28;;;;;;;47.33;21.13;;;;;;;6.58;100.00;102235.28;5048608;28;20032;-75
2023/11/14 06:10:54;;;;;;;50.38;20.45;;;;;;;6.37;100.00;102227.16;5048531;28;20411;-75
2023/11/14 06:13:19;;;;;;;44.58;21.45;;;;;;;6.54;100.00;102228.44;5047971;28;20047;-75
2023/11/14 06:15:45;;;;;;;60.75;26.60;;;;;;;7.23;100.00;102289.09;5048668;28;20029;-74
2023/11/14 06:18:12;;;;;;;83.57;32.35;;;;;;;7.05;100.00;102296.25;5048339;28;20055;-74
2023/11/14 06:20:37;;;;;;;93.78;38.83;;;;;;;6.89;100.00;102235.19;5048210;28;20033;-75
2023/11/14 06:23:03;;;;;;;87.22;37.05;;;;;;;7.26;100.00;102306.84;5048725;28;20505;-75
2023/11/14 06:25:28;;;;;;;85.72;39.05;;;;;;;7.02;100.00;102231.25;5031536;28;20033;-75
2023/11/14 06:27:54;;;;;;;84.72;39.97;;;;;;;6.73;100.00;102228.06;5048162;28;20530;-74
2023/11/14 06:30:19;;;;;;;85.63;38.42;;;;;;;7.18;100.00;102296.56;5048877;28;20053;-75
2023/11/14 06:32:45;;;;;;;80.47;35.38;;;;;;;7.10;100.00;102285.41;5030902;28;20025;-71
2023/11/14 06:35:11;;;;;;;107.72;37.55;;;;;;;7.10;100.00;102295.53;5046895;28;20025;-75
2023/11/14 06:37:37;;;;;;;72.78;32.17;;;;;;;7.57;100.00;102307.56;5048238;28;20039;-75
2023/11/14 06:40:03;;;;;;;68.18;29.10;;;;;;;7.40;100.00;102219.47;5030563;28;20025;-74
2023/11/14 06:42:28;;;;;;;104.93;35.13;;;;;;;6.82;100.00;102227.41;5048549;28;20099;-75
2023/11/14 06:44:54;;;;;;;84.28;32.90;;;;;;;7.00;100.00;102259.06;5049207;28;20021;-76
2023/11/14 06:47:19;;;;;;;118.00;36.13;;;;;;;6.90;100.00;102266.38;5048609;28;20029;-76
2023/11/14 06:49:45;;;;;;;124.00;33.65;;;;;;;6.75;100.00;102223.91;5048881;28;20035;-75
2023/11/14 06:52:11;;;;;;;104.35;33.28;;;;;;;6.87;100.00;102259.56;5047392;28;20032;-74
2023/11/14 06:54:37;;;;;;;85.20;32.47;;;;;;;6.69;100.00;102259.16;5048492;28;20025;-75
2023/11/14 06:57:05;;;;;;;121.60;34.53;;;;;;;7.14;100.00;102258.50;5048988;28;20098;-75
2023/11/14 06:59:31;;;;;;;88.95;31.15;;;;;;;6.34;100.00;102191.72;5048924;28;20044;-75
2023/11/14 07:01:56;;;;;;;90.38;33.08;;;;;;;7.06;100.00;102240.63;5048842;28;20037;-75
2023/11/14 07:04:22;;;;;;;119.25;40.33;;;;;;;7.23;100.00;102223.31;5030149;28;20028;-75
2023/11/14 07:06:47;;;;;;;108.30;43.33;;;;;;;7.41;100.00;102271.75;5030290;28;20055;-75
2023/11/14 07:09:15;;;;;;;111.75;44.65;;;;;;;7.45;100.00;102287.06;5030601;28;20056;-74
2023/11/14 07:11:44;;;;;;;97.47;48.03;;;;;;;7.26;100.00;102180.38;5030898;28;20025;-75
2023/11/14 07:14:10;;;;;;;77.25;39.58;;;;;;;7.83;100.00;102280.28;5048245;28;20112;-75
2023/11/14 07:16:35;;;;;;;49.80;28.85;;;;;;;7.76;100.00;102321.50;5048550;28;20028;-75
2023/11/14 07:19:01;;;;;;;47.42;28.58;;;;;;;7.72;100.00;102320.56;5049026;28;20044;-74
2023/11/14 07:21:32;;;;;;;45.13;25.33;;;;;;;7.37;100.00;102253.13;5029871;28;20029;-75
2023/11/14 07:23:58;;;;;;;42.42;24.63;;;;;;;8.30;100.00;102330.22;5048230;28;20040;-75
2023/11/14 07:26:24;;;;;;;44.22;20.52;;;;;;;7.62;100.00;102234.28;5048371;28;20096;-76
2023/11/14 07:28:50;;;;;;;37.60;20.33;;;;;;;7.96;100.00;102284.78;5048496;28;20025;-74
2023/11/14 07:31:16;;;;;;;47.45;25.35;;;;;;;8.15;100.00;102312.16;5030541;28;20036;-74
2023/11/14 07:33:42;;;;;;;56.20;25.15;;;;;;;7.90;100.00;102289.72;5028864;28;20815;-75
2023/11/14 07:36:07;;;;;;;31.90;18.52;;;;;;;8.05;100.00;102322.94;5029812;28;20100;-75
2023/11/14 07:38:33;;;;;;;32.70;19.98;;;;;;;7.65;100.00;102349.09;5030182;28;20041;-75
2023/11/14 07:40:58;;;;;;;33.85;21.88;;;;;;;8.24;100.00;102304.72;5029806;28;20021;-75
2023/11/14 07:43:24;;;;;;;37.08;20.55;;;;;;;8.08;100.00;102284.97;5046553;28;20119;-75
2023/11/14 07:45:50;;;;;;;38.75;18.60;;;;;;;8.19;100.00;102283.53;5047884;28;20025;-76
2023/11/14 07:48:16;;;;;;;38.85;19.92;;;;;;;8.66;100.00;102357.94;5029554;28;20029;-75
2023/11/14 07:50:42;;;;;;;33.38;18.23;;;;;;;8.50;100.00;102356.81;5047142;28;20039;-75
2023/11/14 07:53:09;;;;;;;29.75;17.10;;;;;;;8.56;100.00;102313.81;5047347;28;20497;-73
2023/11/14 07:55:35;;;;;;;25.13;16.38;;;;;;;7.95;100.00;102242.53;5047954;28;20032;-75
2023/11/14 07:58:00;;;;;;;23.50;15.63;;;;;;;8.48;100.00;102309.44;5047427;28;20040;-77
2023/11/14 08:00:26;;;;;;;28.08;17.70;;;;;;;8.66;100.00;102272.59;5046948;28;20025;-73
2023/11/14 08:02:51;;;;;;;24.95;16.85;;;;;;;9.22;100.00;102377.53;5047517;28;20415;-75
2023/11/14 08:05:17;;;;;;;26.52;17.15;;;;;;;9.21;100.00;102360.59;5025905;28;20060;-75
2023/11/14 08:07:42;;;;;;;33.58;18.63;;;;;;;8.67;100.00;102357.13;5040527;28;20570;-73
2023/11/14 08:10:08;;;;;;;34.05;21.00;;;;;;;8.19;100.00;102330.81;5027296;28;20025;-70
2023/11/14 08:12:35;;;;;;;27.00;17.70;;;;;;;7.87;100.00;102294.69;5027525;28;20033;-74
2023/11/14 08:15:01;;;;;;;27.88;18.88;;;;;;;8.63;100.00;102335.06;5041154;28;20037;-74
2023/11/14 08:17:27;;;;;;;33.47;19.90;;;;;;;8.02;100.00;102267.16;5027045;28;20037;-73
2023/11/14 08:19:52;;;;;;;27.30;19.83;;;;;;;8.40;100.00;102285.63;5027578;28;20114;-74
2023/11/14 08:22:18;;;;;;;30.63;21.63;;;;;;;9.05;100.00;102348.47;5027041;28;20033;-74
2023/11/14 08:24:43;;;;;;;35.15;23.38;;;;;;;9.10;100.00;102358.72;5026858;28;20044;-73
2023/11/14 08:27:09;;;;;;;36.83;25.50;;;;;;;8.62;100.00;102285.19;5026949;28;20029;-74
2023/11/14 08:29:38;;;;;;;45.10;29.45;;;;;;;9.15;100.00;102339.34;5027209;28;20192;-74
2023/11/14 08:32:04;;;;;;;48.42;31.77;;;;;;;9.11;100.00;102256.41;5027155;28;20475;-74
2023/11/14 08:34:30;;;;;;;49.03;34.58;;;;;;;9.71;100.00;102373.19;5030333;28;20052;-75
2023/11/14 08:36:56;;;;;;;52.47;36.20;;;;;;;9.13;100.00;102306.31;5029210;28;20412;-75
2023/11/14 08:39:21;;;;;;;50.55;34.22;;;;;;;9.80;100.00;102328.47;5031230;28;20482;-75
2023/11/14 08:41:47;;;;;;;42.13;30.65;;;;;;;10.04;100.00;102379.56;5030643;28;20036;-73
2023/11/14 08:44:12;;;;;;;39.83;29.75;;;;;;;9.99;100.00;102395.59;5030549;28;20040;-73
2023/11/14 08:46:38;;;;;;;37.90;29.13;;;;;;;9.93;100.00;102317.59;5028986;28;20412;-73
2023/11/14 08:49:07;;;;;;;32.63;24.13;;;;;;;10.30;100.00;102377.41;5030400;28;20040;-73
2023/11/14 08:51:37;;;;;;;33.40;24.38;;;;;;;9.97;100.00;102362.56;5029749;28;20029;-72
2023/11/14 08:54:02;;;;;;;29.30;21.88;;;;;;;9.60;100.00;102290.09;5029609;28;20033;-74
2023/11/14 08:56:29;;;;;;;28.60;22.08;;;;;;;10.51;100.00;102359.00;5028675;28;20106;-74
2023/11/14 08:58:57;;;;;;;28.15;20.73;;;;;;;10.58;100.00;102323.44;5045936;28;20397;-74
2023/11/14 09:01:24;;;;;;;28.00;19.20;;;;;;;10.61;100.00;102356.56;5028801;28;20195;-73
2023/11/14 09:03:50;;;;;;;24.00;17.17;;;;;;;10.80;100.00;102367.75;5030240;28;20025;-74
2023/11/14 09:06:16;;;;;;;20.58;14.75;;;;;;;10.11;100.00;102239.06;5028654;28;20054;-73
2023/11/14 09:08:42;;;;;;;20.25;13.70;;;;;;;10.29;100.00;102322.31;5029170;28;20518;-74
2023/11/14 09:11:08;;;;;;;18.20;13.45;;;;;;;10.58;100.00;102317.53;5030603;28;20114;-77
2023/11/14 09:13:34;;;;;;;20.27;14.63;;;;;;;11.10;100.00;102373.13;5030106;28;20040;-73
2023/11/14 09:16:01;;;;;;;19.70;15.13;;;;;;;11.21;100.00;102336.72;5029941;28;20029;-73
2023/11/14 09:18:27;;;;;;;15.70;12.90;;;;;;;11.23;100.00;102334.22;5029791;28;20040;-71
2023/11/14 09:20:54;;;;;;;18.90;13.15;;;;;;;11.83;100.00;102379.63;5030051;28;20030;-73
2023/11/14 09:23:20;;;;;;;14.75;11.80;;;;;;;12.12;100.00;102386.56;5029815;28;20108;-69
2023/11/14 09:25:45;;;;;;;14.82;11.57;;;;;;;12.45;100.00;102382.47;5027967;28;20078;-73
2023/11/14 09:28:11;;;;;;;12.82;10.77;;;;;;;11.70;100.00;102327.75;5029723;28;20029;-73
2023/11/14 09:30:36;;;;;;;12.98;10.35;;;;;;;11.93;100.00;102333.81;5028973;28;20025;-73
2023/11/14 09:33:03;;;;;;;12.68;9.82;;;;;;;12.00;100.00;102330.44;5029381;28;20037;-74
2023/11/14 09:35:28;;;;;;;12.77;9.77;;;;;;;12.35;100.00;102385.81;5029801;28;20026;-74
2023/11/14 09:37:54;;;;;;;14.40;10.98;;;;;;;11.75;100.00;102303.13;5029506;28;20419;-74
2023/11/14 09:40:21;;;;;;;14.30;10.63;;;;;;;12.22;100.00;102345.84;5029855;28;20079;-73
2023/11/14 09:42:49;;;;;;;13.35;10.32;;;;;;;12.69;100.00;102425.94;5029123;28;20091;-74
2023/11/14 09:45:18;;;;;;;14.18;10.05;;;;;;;12.00;100.00;102335.53;5044204;28;20065;-73
2023/11/14 09:47:45;;;;;;;15.05;10.57;;;;;;;12.62;100.00;102406.31;5028334;28;20021;-73
2023/11/14 09:50:11;;;;;;;10.80;9.40;;;;;;;12.98;100.00;102424.28;5029380;28;20415;-74
2023/11/14 09:52:37;;;;;;;9.65;7.88;;;;;;;13.16;100.00;102347.69;5045094;28;20037;-74
2023/11/14 09:55:05;;;;;;;11.85;10.05;;;;;;;12.71;100.00;102333.19;5029446;28;20507;-73
2023/11/14 09:57:34;;;;;;;14.63;10.57;;;;;;;12.65;100.00;102317.00;5027771;28;20037;-72
2023/11/14 10:00:01;;;;;;;13.88;11.00;;;;;;;12.89;100.00;102300.00;5027528;28;20029;-72
2023/11/14 10:02:26;;;;;;;14.77;11.13;;;;;;;12.63;100.00;102260.88;5029200;28;20060;-73
2023/11/14 10:04:52;;;;;;;14.68;10.85;;;;;;;12.97;100.00;102298.28;5030744;28;20464;-72
2023/11/14 10:07:19;;;;;;;12.10;10.20;;;;;;;13.21;100.00;102340.06;5031626;28;20029;-72
2023/11/14 10:09:46;;;;;;;29.20;10.10;;;;;;;13.72;100.00;102351.03;5048989;28;20029;-74
2023/11/14 10:12:12;;;;;;;14.07;10.15;;;;;;;14.01;100.00;102315.13;5048748;28;20122;-72
2023/11/14 10:14:46;;;;;;;15.85;11.68;;;;;;;13.99;100.00;102373.09;4697508;28;10000129;-72
2023/11/14 10:17:13;;;;;;;14.23;10.10;;;;;;;13.70;100.00;102344.22;5044885;28;20028;-74
2023/11/14 10:20:11;;;;;;;15.68;11.43;;;;;;;13.80;100.00;102333.97;5043723;28;20384;-72
2023/11/14 10:22:53;;;;;;;12.82;10.13;;;;;;;14.19;100.00;102324.41;5028938;28;20072;-73
2023/11/14 10:25:25;;;;;;;;;;;;;;;14.22;100.00;102337.22;5046238;28;20538;-74
2023/11/14 10:28:04;;;;;;;15.57;11.05;;;;;;;14.22;100.00;102332.09;5043797;28;20376;-73
2023/11/14 10:30:41;;;;;;;11.25;9.60;;;;;;;14.17;100.00;102339.78;5045567;28;20118;-74
2023/11/14 10:33:09;;;;;;;11.25;9.15;;;;;;;14.01;100.00;102302.34;5045411;28;20121;-72
2023/11/14 10:35:35;;;;;;;11.75;9.65;;;;;;;13.42;100.00;102310.22;5045024;28;20052;-71
2023/11/14 10:38:25;;;;;;;12.65;9.77;;;;;;;14.49;100.00;102391.69;5043407;28;20035;-72
2023/11/14 10:40:53;;;;;;;12.10;9.70;;;;;;;13.80;100.00;102354.44;5027489;28;20033;-71
2023/11/14 10:43:34;;;;;;;12.80;9.88;;;;;;;14.09;100.00;102333.84;5042679;28;20033;-71
2023/11/14 10:46:20;;;;;;;11.60;9.13;;;;;;;14.69;100.00;102396.72;5045599;28;20439;-71
2023/11/14 10:48:46;;;;;;;11.75;9.15;;;;;;;13.90;100.00;102261.44;5046668;28;20506;-79
2023/11/14 10:51:12;;;;;;;11.02;9.27;;;;;;;14.07;100.00;102304.84;5048483;28;20065;-72
2023/11/14 10:53:39;;;;;;;12.65;10.60;;;;;;;14.91;100.00;102372.66;5045796;28;20031;-72
2023/11/14 10:56:06;;;;;;;12.32;10.25;;;;;;;14.61;100.00;102311.41;5046322;28;20085;-73
2023/11/14 10:58:34;;;;;;;10.45;8.77;;;;;;;14.67;100.00;102316.47;5029405;28;20036;-72
2023/11/14 11:01:02;;;;;;;13.07;10.05;;;;;;;14.97;100.00;102372.63;5029496;28;20061;-72
2023/11/14 11:03:29;;;;;;;11.13;9.45;;;;;;;14.68;100.00;102302.81;5029488;28;20047;-72
2023/11/14 11:05:54;;;;;;;11.77;9.23;;;;;;;14.98;100.00;102325.63;5047530;28;20110;-72